createdAt,value
2022-07-29T00:02:15.068Z,22.70
2022-07-29T00:04:41.750Z,22.70
2022-07-29T00:07:08.766Z,22.70
2022-07-29T00:09:50.638Z,22.80
2022-07-29T00:12:18.227Z,22.80
2022-07-29T00:14:52.522Z,22.80
2022-07-29T00:17:19.336Z,22.70
2022-07-29T00:19:46.105Z,22.70
2022-07-29T00:22:13.958Z,22.50
2022-07-29T00:24:40.608Z,22.50
2022-07-29T00:27:07.275Z,22.40
2022-07-29T00:29:34.847Z,22.30
2022-07-29T00:32:03.104Z,22.20
2022-07-29T00:34:48.741Z,22.20
2022-07-29T00:37:15.428Z,22.20
2022-07-29T00:39:42.021Z,22.00
2022-07-29T00:42:09.014Z,22.00
2022-07-29T00:44:39.162Z,21.90
2022-07-29T00:47:06.401Z,21.90
2022-07-29T00:49:33.645Z,21.80
2022-07-29T00:52:01.899Z,21.80
2022-07-29T00:54:28.779Z,21.70
2022-07-29T00:56:56.281Z,21.60
2022-07-29T00:59:22.936Z,21.60
2022-07-29T01:01:49.617Z,21.60
2022-07-29T01:04:16.640Z,21.50
2022-07-29T01:06:43.992Z,21.50
2022-07-29T01:09:11.869Z,21.40
2022-07-29T01:11:39.054Z,21.30
2022-07-29T01:14:07.285Z,21.20
2022-07-29T01:16:38.514Z,21.10
2022-07-29T01:19:13.980Z,21.10
2022-07-29T01:21:52.367Z,21.10
2022-07-29T01:24:31.392Z,21.10
2022-07-29T01:27:16.342Z,21.10
2022-07-29T01:29:45.950Z,21.10
2022-07-29T01:32:28.711Z,21.10
2022-07-29T01:35:13.799Z,21.10
2022-07-29T01:37:44.015Z,21.10
2022-07-29T01:40:15.189Z,21.10
2022-07-29T01:42:46.020Z,21.20
2022-07-29T01:45:33.289Z,21.20
2022-07-29T01:47:59.855Z,21.10
2022-07-29T01:50:31.216Z,21.20
2022-07-29T01:52:59.433Z,21.10
2022-07-29T01:55:28.302Z,21.10
2022-07-29T01:57:55.047Z,21.10
2022-07-29T02:00:22.765Z,21.20
2022-07-29T02:02:50.071Z,21.20
2022-07-29T02:05:19.807Z,21.20
2022-07-29T02:07:47.718Z,21.20
2022-07-29T02:10:15.810Z,21.30
2022-07-29T02:12:43.547Z,21.30
2022-07-29T02:15:17.238Z,21.30
2022-07-29T02:17:46.597Z,21.30
2022-07-29T02:20:13.536Z,21.30
2022-07-29T02:22:40.794Z,21.30
2022-07-29T02:25:13.992Z,21.30
2022-07-29T02:27:42.141Z,21.40
2022-07-29T02:30:10.921Z,21.40
2022-07-29T02:32:38.466Z,21.40
2022-07-29T02:35:07.720Z,21.40
2022-07-29T02:37:34.828Z,21.40
2022-07-29T02:40:02.608Z,21.30
2022-07-29T02:42:29.545Z,21.30
2022-07-29T02:44:56.574Z,21.30
2022-07-29T02:47:25.226Z,21.30
2022-07-29T02:49:57.757Z,21.30
2022-07-29T02:52:35.801Z,21.30
2022-07-29T02:55:06.880Z,21.30
2022-07-29T02:57:54.709Z,21.20
2022-07-29T03:00:22.328Z,21.20
2022-07-29T03:02:51.606Z,21.20
2022-07-29T03:05:19.306Z,21.20
2022-07-29T03:07:48.662Z,21.10
2022-07-29T03:10:15.531Z,21.00
2022-07-29T03:12:42.739Z,21.00
2022-07-29T03:15:09.788Z,20.90
2022-07-29T03:17:37.722Z,20.90
2022-07-29T03:20:04.713Z,20.80
2022-07-29T03:22:31.386Z,20.70
2022-07-29T03:24:58.072Z,20.70
2022-07-29T03:27:27.733Z,20.60
2022-07-29T03:29:54.378Z,20.60
2022-07-29T03:32:25.230Z,20.60
2022-07-29T03:34:52.100Z,20.70
2022-07-29T03:37:18.873Z,20.60
2022-07-29T03:39:47.368Z,20.60
2022-07-29T03:42:17.141Z,20.60
2022-07-29T03:44:45.206Z,20.60
2022-07-29T03:47:14.652Z,20.50
2022-07-29T03:49:43.158Z,20.50
2022-07-29T03:52:10.781Z,20.50
2022-07-29T03:54:37.518Z,20.60
2022-07-29T03:57:04.636Z,20.60
2022-07-29T03:59:35.757Z,20.50
2022-07-29T04:02:03.844Z,20.50
2022-07-29T04:04:33.337Z,20.50
2022-07-29T04:07:00.615Z,20.50
2022-07-29T04:09:29.457Z,20.50
2022-07-29T04:12:01.840Z,20.50
2022-07-29T04:14:29.702Z,20.50
2022-07-29T04:16:56.550Z,20.50
2022-07-29T04:19:24.170Z,20.60
2022-07-29T04:21:51.145Z,20.60
2022-07-29T04:24:18.276Z,20.60
2022-07-29T04:26:47.789Z,20.60
2022-07-29T04:29:15.658Z,20.60
2022-07-29T04:31:45.540Z,20.60
2022-07-29T04:34:15.768Z,20.60
2022-07-29T04:36:43.355Z,20.60
2022-07-29T04:39:11.360Z,20.70
2022-07-29T04:41:38.886Z,20.70
2022-07-29T04:44:07.434Z,20.80
2022-07-29T04:46:36.057Z,20.80
2022-07-29T04:49:04.365Z,20.90
2022-07-29T04:51:31.316Z,20.90
2022-07-29T04:53:58.448Z,21.00
2022-07-29T04:56:26.468Z,21.10
2022-07-29T04:58:54.899Z,21.10
2022-07-29T05:01:25.818Z,21.20
2022-07-29T05:03:59.891Z,21.30
2022-07-29T05:06:26.969Z,21.30
2022-07-29T05:08:56.076Z,21.50
2022-07-29T05:11:26.131Z,21.50
2022-07-29T05:13:56.735Z,21.70
2022-07-29T05:16:23.597Z,21.70
2022-07-29T05:18:50.240Z,21.80
2022-07-29T05:21:17.001Z,21.90
2022-07-29T05:23:43.611Z,22.00
2022-07-29T05:26:10.332Z,22.10
2022-07-29T05:28:36.924Z,22.20
2022-07-29T05:31:03.784Z,22.30
2022-07-29T05:33:36.159Z,22.40
2022-07-29T05:36:08.058Z,22.50
2022-07-29T05:38:37.622Z,22.70
2022-07-29T05:41:05.118Z,22.80
2022-07-29T05:43:31.740Z,23.00
2022-07-29T05:46:00.507Z,23.10
2022-07-29T05:48:27.361Z,23.20
2022-07-29T05:50:54.494Z,23.40
2022-07-29T05:53:21.399Z,23.60
2022-07-29T05:55:48.385Z,24.10
2022-07-29T05:58:17.451Z,25.00
2022-07-29T06:00:44.287Z,25.90
2022-07-29T06:03:10.974Z,26.70
2022-07-29T06:05:37.743Z,26.90
2022-07-29T06:08:06.737Z,26.70
2022-07-29T06:10:36.829Z,26.50
2022-07-29T06:13:03.832Z,26.80
2022-07-29T06:15:30.495Z,27.30
2022-07-29T06:18:01.199Z,27.90
2022-07-29T06:20:30.856Z,28.40
2022-07-29T06:22:57.830Z,28.70
2022-07-29T06:25:24.495Z,28.50
2022-07-29T06:27:51.293Z,28.40
2022-07-29T06:30:17.949Z,28.40
2022-07-29T06:32:44.896Z,28.70
2022-07-29T06:35:38.920Z,29.00
2022-07-29T06:37:59.530Z,29.10
2022-07-29T06:40:45.570Z,28.40
2022-07-29T06:43:12.206Z,29.10
2022-07-29T06:45:42.033Z,30.00
2022-07-29T06:48:09.274Z,29.70
2022-07-29T06:50:35.911Z,29.70
2022-07-29T06:53:02.693Z,29.90
2022-07-29T06:55:29.290Z,30.10
2022-07-29T06:57:55.957Z,29.60
2022-07-29T07:00:22.736Z,28.80
2022-07-29T07:02:49.498Z,28.60
2022-07-29T07:05:17.403Z,28.90
2022-07-29T07:07:44.045Z,29.50
2022-07-29T07:10:10.825Z,29.90
2022-07-29T07:12:37.456Z,30.40
2022-07-29T07:15:05.557Z,31.50
2022-07-29T07:17:32.161Z,31.70
2022-07-29T07:19:58.868Z,30.90
2022-07-29T07:22:25.529Z,29.80
2022-07-29T07:24:53.349Z,28.80
2022-07-29T07:27:20.096Z,28.20
2022-07-29T07:29:47.067Z,27.80
2022-07-29T07:32:14.526Z,27.40
2022-07-29T07:34:41.380Z,27.40
2022-07-29T07:37:08.086Z,27.00
2022-07-29T07:39:38.015Z,26.70
2022-07-29T07:42:04.746Z,26.30
2022-07-29T07:44:32.484Z,26.20
2022-07-29T07:47:08.548Z,26.20
2022-07-29T07:49:35.396Z,26.40
2022-07-29T07:52:03.399Z,26.30
2022-07-29T07:54:30.125Z,26.10
2022-07-29T07:56:58.944Z,26.10
2022-07-29T07:59:25.616Z,26.20
2022-07-29T08:01:56.328Z,27.00
2022-07-29T08:04:27.438Z,28.60
2022-07-29T08:06:55.717Z,29.30
2022-07-29T08:09:29.451Z,28.30
2022-07-29T08:11:57.439Z,28.00
2022-07-29T08:14:24.159Z,27.80
2022-07-29T08:16:50.958Z,28.00
2022-07-29T08:19:17.811Z,28.30
2022-07-29T08:21:44.554Z,28.20
2022-07-29T08:24:31.313Z,28.00
2022-07-29T08:26:58.106Z,28.10
2022-07-29T08:29:25.024Z,28.30
2022-07-29T08:31:52.118Z,28.10
2022-07-29T08:34:19.005Z,27.90
2022-07-29T08:36:54.119Z,27.90
2022-07-29T08:39:22.222Z,27.60
2022-07-29T08:41:57.279Z,27.90
2022-07-29T08:44:30.382Z,28.10
2022-07-29T08:46:58.271Z,28.20
2022-07-29T08:49:27.123Z,28.30
2022-07-29T08:51:55.104Z,27.90
2022-07-29T08:54:24.259Z,28.00
2022-07-29T08:56:51.309Z,28.20
2022-07-29T08:59:20.199Z,28.30
2022-07-29T09:01:49.368Z,28.20
2022-07-29T09:04:16.654Z,27.80
2022-07-29T09:06:44.947Z,28.00
2022-07-29T09:09:12.200Z,28.20
2022-07-29T09:11:39.023Z,28.70
2022-07-29T09:14:05.719Z,29.10
2022-07-29T09:16:53.820Z,29.20
2022-07-29T09:19:25.100Z,29.50
2022-07-29T09:22:03.340Z,30.10
2022-07-29T09:24:39.494Z,30.70
2022-07-29T09:27:20.206Z,30.40
2022-07-29T09:29:47.033Z,29.90
2022-07-29T09:32:13.936Z,29.40
2022-07-29T09:34:40.618Z,29.00
2022-07-29T09:37:07.402Z,28.80
2022-07-29T09:39:33.964Z,28.60
2022-07-29T09:42:01.945Z,28.50
2022-07-29T09:44:41.200Z,28.50
2022-07-29T09:47:08.021Z,28.50
2022-07-29T09:49:35.277Z,28.60
2022-07-29T09:52:04.690Z,28.60
2022-07-29T09:54:37.495Z,28.50
2022-07-29T09:57:05.547Z,28.50
2022-07-29T09:59:32.514Z,28.60
2022-07-29T10:01:59.504Z,28.50
2022-07-29T10:04:37.913Z,28.70
2022-07-29T10:07:06.010Z,28.80
2022-07-29T10:09:33.122Z,29.30
2022-07-29T10:12:06.201Z,29.60
2022-07-29T10:14:34.082Z,29.70
2022-07-29T10:17:04.677Z,29.70
2022-07-29T10:19:34.968Z,29.60
2022-07-29T10:22:03.520Z,29.60
2022-07-29T10:24:31.597Z,29.40
2022-07-29T10:26:58.988Z,29.10
2022-07-29T10:29:26.199Z,29.10
2022-07-29T10:32:05.056Z,28.90
2022-07-29T10:34:50.248Z,28.70
2022-07-29T10:37:28.901Z,28.60
2022-07-29T10:42:56.469Z,28.80
2022-07-29T10:45:23.499Z,29.00
2022-07-29T10:48:03.044Z,30.00
2022-07-29T10:50:49.651Z,31.30
2022-07-29T10:53:17.312Z,32.20
2022-07-29T10:55:49.497Z,32.10
2022-07-29T10:58:18.238Z,31.80
2022-07-29T11:00:47.914Z,31.20
2022-07-29T11:03:57.071Z,30.50
2022-07-29T11:06:28.090Z,30.20
2022-07-29T11:09:15.264Z,30.40
2022-07-29T11:11:43.928Z,30.60
2022-07-29T11:14:14.844Z,30.70
2022-07-29T11:17:14.049Z,30.70
2022-07-29T11:19:46.786Z,30.60
2022-07-29T11:22:34.333Z,30.40
2022-07-29T11:25:19.435Z,30.50
2022-07-29T11:28:23.029Z,30.80
2022-07-29T11:30:54.055Z,31.00
2022-07-29T11:33:37.506Z,31.00
2022-07-29T11:36:17.467Z,30.90
2022-07-29T11:38:44.353Z,31.00
2022-07-29T11:41:27.294Z,30.80
2022-07-29T11:43:59.102Z,30.60
2022-07-29T11:46:44.480Z,30.20
2022-07-29T11:49:11.570Z,30.10
2022-07-29T11:51:48.263Z,29.90
2022-07-29T11:54:17.524Z,29.90
2022-07-29T11:56:46.722Z,29.70
2022-07-29T11:59:15.165Z,29.60
2022-07-29T12:02:06.627Z,29.50
2022-07-29T12:05:10.794Z,29.40
2022-07-29T12:07:41.178Z,29.20
2022-07-29T12:10:19.790Z,29.10
2022-07-29T12:12:52.986Z,29.00
2022-07-29T12:15:21.562Z,28.90
2022-07-29T12:17:49.292Z,28.90
2022-07-29T12:20:23.634Z,28.80
2022-07-29T12:22:54.562Z,28.70
2022-07-29T12:25:32.814Z,28.60
2022-07-29T12:28:01.942Z,28.60
2022-07-29T12:30:35.977Z,28.60
2022-07-29T12:33:10.923Z,28.60
2022-07-29T12:35:37.666Z,28.60
2022-07-29T12:38:04.432Z,28.90
2022-07-29T12:40:31.887Z,29.50
2022-07-29T12:43:08.819Z,30.30
2022-07-29T12:45:35.589Z,31.20
2022-07-29T12:48:02.678Z,31.90
2022-07-29T12:51:16.436Z,32.10
2022-07-29T12:53:17.751Z,32.10
2022-07-29T12:55:54.996Z,32.30
2022-07-29T12:58:29.281Z,32.70
2022-07-29T13:01:00.512Z,33.00
2022-07-29T13:03:27.319Z,32.60
2022-07-29T13:05:57.085Z,32.30
2022-07-29T13:08:23.974Z,31.70
2022-07-29T13:10:50.905Z,31.30
2022-07-29T13:13:17.520Z,31.20
2022-07-29T13:15:47.871Z,31.10
2022-07-29T13:18:30.814Z,30.90
2022-07-29T13:20:57.952Z,30.90
2022-07-29T13:23:26.762Z,30.80
2022-07-29T13:25:54.413Z,31.10
2022-07-29T13:28:25.072Z,31.50
2022-07-29T13:30:51.856Z,31.60
2022-07-29T13:33:18.619Z,31.50
2022-07-29T13:35:45.213Z,31.30
2022-07-29T13:38:11.884Z,31.20
2022-07-29T13:40:38.463Z,31.00
2022-07-29T13:43:11.545Z,31.30
2022-07-29T13:45:38.491Z,31.80
2022-07-29T13:48:06.154Z,31.80
2022-07-29T13:50:34.492Z,31.80
2022-07-29T13:53:01.201Z,32.10
2022-07-29T13:55:27.922Z,32.20
2022-07-29T13:57:54.614Z,32.30
2022-07-29T14:00:21.676Z,32.20
2022-07-29T14:02:48.519Z,32.20
2022-07-29T14:05:15.229Z,32.10
2022-07-29T14:07:41.899Z,32.00
2022-07-29T14:10:09.113Z,31.80
2022-07-29T14:12:35.895Z,31.70
2022-07-29T14:15:02.599Z,31.40
2022-07-29T14:17:29.495Z,31.20
2022-07-29T14:19:56.145Z,31.20
2022-07-29T14:22:23.159Z,31.10
2022-07-29T14:24:52.684Z,31.20
2022-07-29T14:27:19.944Z,31.10
2022-07-29T14:30:05.079Z,30.80
2022-07-29T14:32:31.734Z,30.80
2022-07-29T14:34:58.368Z,30.80
2022-07-29T14:37:24.947Z,30.80
2022-07-29T14:39:51.508Z,30.90
2022-07-29T14:42:18.790Z,30.60
2022-07-29T14:44:45.386Z,30.50
2022-07-29T14:47:14.806Z,30.50
2022-07-29T14:49:42.623Z,30.40
2022-07-29T14:52:09.214Z,30.30
2022-07-29T14:54:35.923Z,30.10
2022-07-29T14:57:02.630Z,29.90
2022-07-29T14:59:29.624Z,29.80
2022-07-29T15:01:56.891Z,29.70
2022-07-29T15:04:24.949Z,29.70
2022-07-29T15:06:53.123Z,29.60
2022-07-29T15:09:19.869Z,29.70
2022-07-29T15:11:46.513Z,29.70
2022-07-29T15:14:13.304Z,29.70
2022-07-29T15:16:42.002Z,29.80
2022-07-29T15:19:11.104Z,29.70
2022-07-29T15:21:41.333Z,29.70
2022-07-29T15:24:14.977Z,29.70
2022-07-29T15:26:43.330Z,29.50
2022-07-29T15:29:10.226Z,29.40
2022-07-29T15:31:37.115Z,29.30
2022-07-29T15:34:06.266Z,29.30
2022-07-29T15:36:51.516Z,29.30
2022-07-29T15:39:19.881Z,29.10
2022-07-29T15:41:46.820Z,29.00
2022-07-29T15:44:13.782Z,29.00
2022-07-29T15:47:01.003Z,29.00
2022-07-29T15:49:48.725Z,28.90
2022-07-29T15:52:18.005Z,28.90
2022-07-29T15:54:45.743Z,28.90
2022-07-29T15:57:12.913Z,28.90
2022-07-29T15:59:39.656Z,28.80
2022-07-29T16:02:06.645Z,28.80
2022-07-29T16:04:33.434Z,28.90
2022-07-29T16:07:00.595Z,29.00
2022-07-29T16:09:28.841Z,28.90
2022-07-29T16:11:56.577Z,28.80
2022-07-29T16:14:23.329Z,28.80
2022-07-29T16:16:50.036Z,28.80
2022-07-29T16:19:17.807Z,28.80
2022-07-29T16:21:44.418Z,28.70
2022-07-29T16:24:11.112Z,28.70
2022-07-29T16:26:37.867Z,28.80
2022-07-29T16:29:05.183Z,28.60
2022-07-29T16:31:32.022Z,28.50
2022-07-29T16:33:59.019Z,28.60
2022-07-29T16:36:26.849Z,28.50
2022-07-29T16:38:57.146Z,28.50
2022-07-29T16:41:23.779Z,28.60
2022-07-29T16:43:50.564Z,28.50
2022-07-29T16:46:18.861Z,28.40
2022-07-29T16:48:46.265Z,28.30
2022-07-29T16:51:14.305Z,28.20
2022-07-29T16:53:43.262Z,28.10
2022-07-29T16:56:12.594Z,28.00
2022-07-29T16:58:43.977Z,28.00
2022-07-29T17:01:11.342Z,28.00
2022-07-29T17:04:00.107Z,28.00
2022-07-29T17:06:27.682Z,28.00
2022-07-29T17:08:54.604Z,28.00
2022-07-29T17:11:21.367Z,27.90
2022-07-29T17:14:09.021Z,27.90
2022-07-29T17:16:36.083Z,27.80
2022-07-29T17:19:02.898Z,27.70
2022-07-29T17:21:30.611Z,27.70
2022-07-29T17:23:59.255Z,27.60
2022-07-29T17:26:29.886Z,27.60
2022-07-29T17:28:56.902Z,27.50
2022-07-29T17:31:25.814Z,27.40
2022-07-29T17:33:55.090Z,27.30
2022-07-29T17:36:24.303Z,27.20
2022-07-29T17:38:52.843Z,27.20
2022-07-29T17:41:20.466Z,27.10
2022-07-29T17:43:47.354Z,27.00
2022-07-29T17:46:14.037Z,27.00
2022-07-29T17:48:41.231Z,26.90
2022-07-29T17:51:08.203Z,26.80
2022-07-29T17:53:35.574Z,26.70
2022-07-29T17:56:02.325Z,26.60
2022-07-29T17:58:29.404Z,26.50
2022-07-29T18:00:56.244Z,26.40
2022-07-29T18:03:23.470Z,26.30
2022-07-29T18:05:50.350Z,26.30
2022-07-29T18:08:17.148Z,26.20
2022-07-29T18:10:44.859Z,26.10
2022-07-29T18:13:16.460Z,26.00
2022-07-29T18:15:45.261Z,26.00
2022-07-29T18:18:12.919Z,25.90
2022-07-29T18:20:42.844Z,25.90
2022-07-29T18:23:09.991Z,25.90
2022-07-29T18:25:41.042Z,25.80
2022-07-29T18:28:07.765Z,25.90
2022-07-29T18:30:37.023Z,25.90
2022-07-29T18:33:20.866Z,26.00
2022-07-29T18:35:49.460Z,26.10
2022-07-29T18:38:16.260Z,26.00
2022-07-29T18:40:45.810Z,26.00
2022-07-29T18:43:13.325Z,26.00
2022-07-29T18:45:48.539Z,25.90
2022-07-29T18:48:17.526Z,25.90
2022-07-29T18:50:44.613Z,25.90
2022-07-29T18:53:18.597Z,25.90
2022-07-29T18:55:45.436Z,25.80
2022-07-29T18:58:12.271Z,25.80
2022-07-29T19:00:39.225Z,25.90
2022-07-29T19:03:08.858Z,26.00
2022-07-29T19:05:36.201Z,26.10
2022-07-29T19:08:03.479Z,26.10
2022-07-29T19:10:30.638Z,26.10
2022-07-29T19:12:57.953Z,26.10
2022-07-29T19:15:25.531Z,26.10
2022-07-29T19:17:53.436Z,26.20
2022-07-29T19:20:21.597Z,26.10
2022-07-29T19:22:50.303Z,26.10
2022-07-29T19:25:17.251Z,26.10
2022-07-29T19:27:44.054Z,26.10
2022-07-29T19:30:11.684Z,26.00
2022-07-29T19:32:42.865Z,25.90
2022-07-29T19:35:27.954Z,25.80
2022-07-29T19:37:55.441Z,25.70
2022-07-29T19:40:22.450Z,25.60
2022-07-29T19:42:51.570Z,25.60
2022-07-29T19:45:22.497Z,25.50
2022-07-29T19:47:52.340Z,25.40
2022-07-29T19:50:19.943Z,25.40
2022-07-29T19:52:48.497Z,25.30
2022-07-29T19:55:15.557Z,25.30
2022-07-29T19:57:46.357Z,25.20
2022-07-29T20:00:13.959Z,25.20
2022-07-29T20:02:50.375Z,25.20
2022-07-29T20:05:17.382Z,25.20
2022-07-29T20:07:50.054Z,25.20
2022-07-29T20:10:17.210Z,25.20
2022-07-29T20:12:45.476Z,25.20
2022-07-29T20:15:16.251Z,25.30
2022-07-29T20:17:44.723Z,25.30
2022-07-29T20:20:11.877Z,25.30
2022-07-29T20:22:40.149Z,25.20
2022-07-29T20:25:09.807Z,25.20
2022-07-29T20:27:40.659Z,25.10
2022-07-29T20:30:07.834Z,25.10
2022-07-29T20:32:34.901Z,25.00
2022-07-29T20:35:01.701Z,25.00
2022-07-29T20:37:29.569Z,25.00
2022-07-29T20:39:56.435Z,25.00
2022-07-29T20:42:25.355Z,24.90
2022-07-29T20:44:54.521Z,24.90
2022-07-29T20:47:24.179Z,24.90
2022-07-29T20:49:51.546Z,24.90
2022-07-29T20:52:19.033Z,24.80
2022-07-29T20:54:51.729Z,24.80
2022-07-29T20:57:18.365Z,24.80
2022-07-29T21:00:06.996Z,24.80
2022-07-29T21:02:36.647Z,24.80
2022-07-29T21:05:04.203Z,24.70
2022-07-29T21:07:31.012Z,24.60
2022-07-29T21:09:57.967Z,24.60
2022-07-29T21:12:30.893Z,24.50
2022-07-29T21:14:58.026Z,24.50
2022-07-29T21:17:25.204Z,24.40
2022-07-29T21:19:53.611Z,24.30
2022-07-29T21:22:23.161Z,24.30
2022-07-29T21:24:50.208Z,24.30
2022-07-29T21:27:38.200Z,24.20
2022-07-29T21:30:07.041Z,24.10
2022-07-29T21:32:34.363Z,24.00
2022-07-29T21:35:01.454Z,24.00
2022-07-29T21:37:28.402Z,24.00
2022-07-29T21:39:55.247Z,24.00
2022-07-29T21:42:25.451Z,24.00
2022-07-29T21:44:52.482Z,23.90
2022-07-29T21:47:20.307Z,24.00
2022-07-29T21:49:47.099Z,24.00
2022-07-29T21:52:16.418Z,24.00
2022-07-29T21:54:45.230Z,24.00
2022-07-29T21:57:11.935Z,24.00
2022-07-29T21:59:38.641Z,24.00
2022-07-29T22:02:05.606Z,23.90
2022-07-29T22:04:32.820Z,23.80
2022-07-29T22:06:59.925Z,23.80
2022-07-29T22:09:31.251Z,23.80
2022-07-29T22:11:57.915Z,23.60
2022-07-29T22:14:24.764Z,23.60
2022-07-29T22:16:53.240Z,23.60
2022-07-29T22:19:27.443Z,23.60
2022-07-29T22:21:54.492Z,23.60
2022-07-29T22:24:23.269Z,23.50
2022-07-29T22:26:50.020Z,23.50
2022-07-29T22:29:18.831Z,23.50
2022-07-29T22:31:45.725Z,23.40
2022-07-29T22:34:13.415Z,23.30
2022-07-29T22:36:41.005Z,23.30
2022-07-29T22:39:12.704Z,23.30
2022-07-29T22:41:42.935Z,23.30
2022-07-29T22:44:09.772Z,23.30
2022-07-29T22:46:36.484Z,23.20
2022-07-29T22:49:03.353Z,23.20
2022-07-29T22:51:30.125Z,23.10
2022-07-29T22:53:56.957Z,23.10
2022-07-29T22:56:24.772Z,23.10
2022-07-29T22:58:51.682Z,23.10
2022-07-29T23:01:37.325Z,23.10
2022-07-29T23:04:05.173Z,23.00
2022-07-29T23:06:32.124Z,23.00
2022-07-29T23:08:58.847Z,22.90
2022-07-29T23:11:25.448Z,23.00
2022-07-29T23:13:52.327Z,23.00
2022-07-29T23:16:26.028Z,23.00
2022-07-29T23:18:54.660Z,23.00
2022-07-29T23:21:21.465Z,23.00
2022-07-29T23:23:48.477Z,23.00
2022-07-29T23:26:17.011Z,23.00
2022-07-29T23:28:44.570Z,23.00
2022-07-29T23:31:13.660Z,22.90
2022-07-29T23:33:41.032Z,22.80
2022-07-29T23:36:07.850Z,22.80
2022-07-29T23:38:34.668Z,22.80
2022-07-29T23:41:09.687Z,22.80
2022-07-29T23:43:39.632Z,22.80
2022-07-29T23:46:06.704Z,22.70
2022-07-29T23:48:33.897Z,22.70
2022-07-29T23:51:01.153Z,22.70
2022-07-29T23:53:31.014Z,22.60
2022-07-29T23:55:57.667Z,22.60
2022-07-29T23:58:24.490Z,22.60
